Time;durP1;ratioP1;P1;durP2;ratioP2;P2;SDS_P1;SDS_P2;PMS_P1;PMS_P2;Temp;Humidity;BMP_temperature;BMP_pressure;BME280_temperature;BME280_humidity;BME280_pressure;Samples;Min_cycle;Max_cycle;Signal;HPM_P1;HPM_P2
2022/12/08 00:03:12;;;;;;;11.90;3.83;;;;;;;-0.17;100.00;99798.50;3551895;81;98861;-93
2022/12/08 00:13:32;;;;;;;9.30;3.30;;;;;;;-0.20;100.00;99800.48;3563916;80;98901;-94
2022/12/08 00:18:33;;;;;;;9.67;3.33;;;;;;;-0.21;100.00;99809.72;3574836;81;35810;-92
2022/12/08 00:23:34;;;;;;;10.87;3.00;;;;;;;-0.22;100.00;99813.31;3569972;81;98597;-92
2022/12/08 00:28:35;;;;;;;12.97;3.23;;;;;;;-0.23;100.00;99812.50;3541783;81;34842;-91
2022/12/08 00:33:36;;;;;;;12.05;3.42;;;;;;;-0.23;100.00;99817.13;3557447;81;99046;-93
2022/12/08 00:38:38;;;;;;;9.95;3.12;;;;;;;-0.26;100.00;99823.40;3562921;81;34841;-89
2022/12/08 00:43:40;;;;;;;10.57;3.10;;;;;;;-0.33;100.00;99812.83;3571913;81;98643;-90
2022/12/08 00:48:41;;;;;;;7.33;3.00;;;;;;;-0.29;100.00;99817.84;3574428;81;34866;-91
2022/12/08 00:53:42;;;;;;;9.30;3.42;;;;;;;-0.32;100.00;99827.96;3525228;81;98425;-92
2022/12/08 00:58:43;;;;;;;9.57;3.40;;;;;;;-0.33;100.00;99825.00;3560046;81;35301;-91
2022/12/08 01:03:44;;;;;;;13.58;3.42;;;;;;;-0.36;100.00;99834.53;3548908;81;98693;-92
2022/12/08 01:08:45;;;;;;;10.83;3.33;;;;;;;-0.40;100.00;99836.86;3551160;81;34880;-91
2022/12/08 01:13:46;;;;;;;10.43;3.30;;;;;;;-0.42;100.00;99841.22;3554872;81;98850;-91
2022/12/08 01:18:48;;;;;;;8.37;2.97;;;;;;;-0.46;100.00;99848.94;3573164;81;34833;-91
2022/12/08 01:23:49;;;;;;;7.07;3.20;;;;;;;-0.48;100.00;99847.13;3550490;81;98830;-91
2022/12/08 01:28:50;;;;;;;11.33;4.07;;;;;;;-0.52;100.00;99846.70;3561990;81;34834;-90
2022/12/08 01:33:51;;;;;;;11.60;4.53;;;;;;;-0.56;100.00;99851.18;3540231;81;99088;-91
2022/12/08 01:38:53;;;;;;;10.13;3.90;;;;;;;-0.61;100.00;99853.46;3554789;81;34840;-91
2022/12/08 01:44:12;;;;;;;11.03;4.33;;;;;;;-0.64;100.00;99856.81;3579210;81;99882;-89
2022/12/08 01:49:27;;;;;;;10.83;4.97;;;;;;;-0.68;100.00;99853.69;3569871;81;25935;-90
2022/12/08 01:54:36;;;;;;;10.65;4.33;;;;;;;-0.74;100.00;99863.87;3572759;80;98994;-90
2022/12/08 01:59:42;;;;;;;12.80;4.07;;;;;;;-0.78;100.00;99864.25;3560096;81;25744;-90
2022/12/08 02:04:43;;;;;;;13.08;4.60;;;;;;;-0.84;100.00;99850.66;3553121;81;98812;-90
2022/12/08 02:09:45;;;;;;;15.37;4.87;;;;;;;-0.89;100.00;99860.84;3602737;81;34805;-90
2022/12/08 02:14:46;;;;;;;14.17;5.47;;;;;;;-0.94;100.00;99865.03;3558059;81;99107;-90
2022/12/08 02:20:19;;;;;;;17.67;6.77;;;;;;;-0.99;100.00;99870.58;3575534;81;34795;-91
2022/12/08 02:26:07;;;;;;;14.20;5.23;;;;;;;-1.05;100.00;99868.56;3543943;81;98878;-91
2022/12/08 02:31:40;;;;;;;15.77;6.00;;;;;;;-1.07;100.00;99869.99;3555989;81;25872;-89
2022/12/08 02:36:55;;;;;;;13.07;6.00;;;;;;;-1.10;100.00;99873.33;3577953;81;98807;-90
2022/12/08 02:42:14;;;;;;;13.32;6.55;;;;;;;-1.14;100.00;99881.27;3573618;81;32215;-91
2022/12/08 02:47:18;;;;;;;13.07;5.90;;;;;;;-1.17;100.00;99881.07;3582045;80;98492;-90
2022/12/08 02:52:25;;;;;;;17.52;7.33;;;;;;;-1.20;100.00;99882.49;3582429;81;30450;-90
2022/12/08 02:57:32;;;;;;;;;;;;;;;-1.21;100.00;99883.61;3560283;81;98717;-90
2022/12/08 03:03:00;;;;;;;;;;;;;;;-1.23;100.00;99873.69;3560084;81;26553;-90
2022/12/08 03:08:31;;;;;;;13.83;5.53;;;;;;;-1.25;100.00;99869.16;3573039;81;84721;-90
2022/12/08 03:13:45;;;;;;;11.93;5.20;;;;;;;-1.26;100.00;99859.45;3586036;80;98832;-90
2022/12/08 03:18:57;;;;;;;13.97;5.63;;;;;;;-1.25;100.00;99861.61;3571000;81;26585;-91
2022/12/08 03:24:01;;;;;;;13.40;4.90;;;;;;;-1.27;100.00;99854.39;3561999;81;98793;-90
2022/12/08 03:29:04;;;;;;;17.00;7.33;;;;;;;-1.30;100.00;99860.39;3565118;81;26540;-91
2022/12/08 03:34:06;;;;;;;14.53;5.67;;;;;;;-1.33;100.00;99855.61;3555589;80;99073;-90
2022/12/08 03:39:07;;;;;;;19.03;6.40;;;;;;;-1.35;100.00;99855.95;3553838;81;26480;-90
2022/12/08 03:44:08;;;;;;;14.53;5.83;;;;;;;-1.38;100.00;99857.13;3545580;81;98704;-90
2022/12/08 03:49:11;;;;;;;15.97;7.40;;;;;;;-1.40;100.00;99852.03;3551236;81;34788;-90
2022/12/08 03:54:12;;;;;;;16.60;7.07;;;;;;;-1.40;100.00;99847.18;3541708;81;98734;-91
2022/12/08 03:59:13;;;;;;;26.17;9.83;;;;;;;-1.41;100.00;99850.45;3553662;81;34820;-92
2022/12/08 04:04:14;;;;;;;23.27;10.20;;;;;;;-1.42;100.00;99842.09;3562131;80;99089;-91
2022/12/08 04:09:14;;;;;;;26.10;10.73;;;;;;;-1.39;100.00;99846.06;3582663;81;34917;-91
2022/12/08 04:14:15;;;;;;;26.87;11.10;;;;;;;-1.39;100.00;99845.52;3526557;80;99167;-90
2022/12/08 04:19:16;;;;;;;25.13;10.60;;;;;;;-1.37;100.00;99839.83;3560597;81;34844;-90
2022/12/08 04:24:17;;;;;;;27.37;10.78;;;;;;;-1.34;100.00;99840.53;3547548;81;98881;-91
2022/12/08 04:29:18;;;;;;;27.37;12.40;;;;;;;-1.33;100.00;99840.22;3547990;81;34850;-91
2022/12/08 04:34:19;;;;;;;23.62;10.93;;;;;;;-1.31;100.00;99833.17;3584817;81;99308;-91
2022/12/08 04:39:20;;;;;;;24.53;10.07;;;;;;;-1.29;100.00;99833.09;3563610;81;35098;-91
2022/12/08 04:44:21;;;;;;;21.50;9.83;;;;;;;-1.28;100.00;99829.29;3563728;81;98898;-91
2022/12/08 04:49:22;;;;;;;22.83;10.13;;;;;;;-1.25;100.00;99827.33;3545443;81;33134;-90
2022/12/08 04:54:23;;;;;;;25.80;11.50;;;;;;;-1.24;100.00;99825.41;3544694;81;98837;-91
2022/12/08 04:59:24;;;;;;;22.87;11.27;;;;;;;-1.23;100.00;99819.70;3527995;81;33084;-90
2022/12/08 05:04:25;;;;;;;32.13;11.97;;;;;;;-1.22;100.00;99823.20;3567516;81;98912;-91
2022/12/08 05:09:26;;;;;;;22.47;9.30;;;;;;;-1.21;100.00;99828.27;3567482;81;32524;-92
2022/12/08 05:14:26;;;;;;;28.47;11.93;;;;;;;-1.21;100.00;99827.48;3564941;80;98807;-91
2022/12/08 05:19:27;;;;;;;30.43;14.70;;;;;;;-1.22;100.00;99828.61;3545967;81;33201;-90
2022/12/08 05:24:28;;;;;;;40.17;15.97;;;;;;;-1.22;100.00;99819.94;3553063;81;99525;-90
2022/12/08 05:29:29;;;;;;;34.47;14.00;;;;;;;-1.21;100.00;99809.38;3564395;81;31273;-90
2022/12/08 05:34:30;;;;;;;33.83;13.90;;;;;;;-1.21;100.00;99812.06;3556713;81;98863;-91
2022/12/08 05:39:30;;;;;;;24.83;11.60;;;;;;;-1.19;100.00;99804.47;3575782;81;26182;-92
2022/12/08 05:44:31;;;;;;;25.77;11.00;;;;;;;-1.18;100.00;99807.41;3560089;81;99095;-91
2022/12/08 05:49:32;;;;;;;22.10;9.90;;;;;;;-1.15;100.00;99802.71;3555941;81;26223;-91
2022/12/08 05:54:33;;;;;;;24.77;10.40;;;;;;;-1.14;100.00;99808.92;3538581;81;98947;-91
2022/12/08 05:59:34;;;;;;;27.13;11.37;;;;;;;-1.11;100.00;99809.08;3552783;81;26076;-91
2022/12/08 06:04:35;;;;;;;22.67;10.00;;;;;;;-1.09;100.00;99802.80;3548997;81;98850;-91
2022/12/08 06:09:40;;;;;;;25.77;10.40;;;;;;;-1.06;100.00;99802.18;3559285;81;26305;-91
2022/12/08 06:14:41;;;;;;;24.65;10.58;;;;;;;-1.02;100.00;99806.39;3549083;81;99192;-92
2022/12/08 06:19:42;;;;;;;26.17;10.80;;;;;;;-0.98;100.00;99805.47;3557812;81;26310;-91
2022/12/08 06:24:43;;;;;;;26.20;11.97;;;;;;;-0.91;100.00;99813.08;3526130;81;98883;-92
2022/12/08 06:29:43;;;;;;;31.07;12.67;;;;;;;-0.97;100.00;99780.05;3544099;81;26850;-91
2022/12/08 06:34:50;;;;;;;24.57;11.27;;;;;;;-0.78;100.00;99795.37;3551319;80;98888;-91
2022/12/08 06:39:58;;;;;;;27.20;11.80;;;;;;;-0.71;100.00;99792.20;3535304;81;26655;-91
2022/12/08 06:45:03;;;;;;;29.80;11.73;;;;;;;-0.64;100.00;99791.97;3548827;81;98779;-91
2022/12/08 06:50:07;;;;;;;28.63;12.17;;;;;;;-0.58;100.00;99797.98;3564721;81;25853;-92
2022/12/08 06:55:09;;;;;;;30.65;13.43;;;;;;;-0.52;100.00;99793.47;3556083;81;99160;-93
2022/12/08 07:00:11;;;;;;;29.23;12.27;;;;;;;-0.45;100.00;99801.88;3575942;81;27480;-93
2022/12/08 07:05:12;;;;;;;26.40;12.73;;;;;;;-0.38;100.00;99799.50;3556255;81;98960;-93
2022/12/08 07:10:13;;;;;;;34.13;17.17;;;;;;;-0.29;100.00;99800.84;3563601;81;26373;-91
2022/12/08 07:15:15;;;;;;;37.10;16.57;;;;;;;-0.23;100.00;99797.63;3563634;81;98905;-93
2022/12/08 07:20:19;;;;;;;34.63;15.87;;;;;;;-0.16;100.00;99795.25;3555575;81;26348;-92
2022/12/08 07:25:20;;;;;;;37.27;17.53;;;;;;;-0.08;100.00;99798.48;3541921;81;99133;-93
2022/12/08 07:30:21;;;;;;;37.87;17.77;;;;;;;-0.02;100.00;99793.94;3561073;81;25887;-95
2022/12/08 07:35:22;;;;;;;38.58;18.90;;;;;;;0.04;100.00;99791.30;3557824;81;99034;-89
2022/12/08 07:40:23;;;;;;;39.87;19.17;;;;;;;0.09;100.00;99779.50;3579088;81;26624;-91
2022/12/08 07:45:26;;;;;;;36.03;18.37;;;;;;;0.13;100.00;99783.92;3554800;81;98408;-96
2022/12/08 07:50:27;;;;;;;36.13;18.97;;;;;;;0.18;100.00;99781.05;3565443;81;26591;-91
2022/12/08 07:55:28;;;;;;;41.15;19.00;;;;;;;0.25;100.00;99781.91;3517184;81;98703;-92
2022/12/08 08:00:30;;;;;;;40.53;20.40;;;;;;;0.29;100.00;99776.86;3582903;81;25774;-94
2022/12/08 08:05:31;;;;;;;38.53;18.87;;;;;;;0.33;100.00;99775.11;3567316;81;98581;-94
2022/12/08 08:10:32;;;;;;;35.37;18.00;;;;;;;0.37;100.00;99769.28;3583467;81;26464;-96
2022/12/08 08:15:32;;;;;;;39.67;18.40;;;;;;;0.43;100.00;99771.23;3532757;81;98835;-94
2022/12/08 08:20:33;;;;;;;36.57;17.37;;;;;;;0.48;100.00;99765.64;3588699;81;25995;-95
2022/12/08 08:25:36;;;;;;;45.27;23.03;;;;;;;0.53;100.00;99761.39;3553007;81;98494;-95
2022/12/08 08:30:37;;;;;;;43.43;23.40;;;;;;;0.58;100.00;99766.08;3549089;81;26590;-92
2022/12/08 08:35:38;;;;;;;40.10;21.67;;;;;;;0.52;100.00;99744.92;3569818;81;99065;-94
2022/12/08 08:40:46;;;;;;;34.67;18.93;;;;;;;0.67;100.00;99761.97;3569683;81;26806;-91
2022/12/08 08:45:49;;;;;;;34.27;17.87;;;;;;;0.70;100.00;99765.36;3566700;81;98574;-95
2022/12/08 08:50:50;;;;;;;29.87;16.67;;;;;;;0.74;100.00;99763.59;3572637;81;27467;-92
2022/12/08 08:55:51;;;;;;;32.17;16.53;;;;;;;0.77;100.00;99763.72;3561798;81;98658;-92
2022/12/08 09:00:51;;;;;;;32.23;15.80;;;;;;;0.82;100.00;99765.47;3587333;81;26439;-94
2022/12/08 09:05:55;;;;;;;34.43;16.27;;;;;;;0.84;100.00;99772.14;3557101;81;98514;-92
2022/12/08 09:10:55;;;;;;;32.37;18.00;;;;;;;0.88;100.00;99774.98;3579515;81;27584;-91
2022/12/08 09:15:57;;;;;;;33.87;18.10;;;;;;;0.91;100.00;99766.18;3556657;81;98945;-92
2022/12/08 09:21:07;;;;;;;38.43;19.43;;;;;;;0.95;100.00;99769.83;3562711;81;26364;-93
2022/12/08 09:26:08;;;;;;;36.63;19.73;;;;;;;0.99;100.00;99760.70;3556739;81;98530;-93
2022/12/08 09:31:12;;;;;;;35.77;18.40;;;;;;;1.02;100.00;99755.19;3575200;81;27462;-94
2022/12/08 09:36:13;;;;;;;38.83;20.17;;;;;;;0.98;100.00;99742.86;3576778;81;98701;-91
2022/12/08 09:42:51;;;;;;;43.93;21.23;;;;;;;1.18;100.00;99741.27;3656619;79;34773;-87
2022/12/08 09:48:12;;;;;;;47.33;20.27;;;;;;;1.18;100.00;99737.20;3516727;80;98511;-88
2022/12/08 09:53:33;;;;;;;41.58;20.30;;;;;;;1.24;100.00;99742.66;3509213;82;102714;-88
2022/12/08 09:58:50;;;;;;;41.02;17.77;;;;;;;1.27;100.00;99737.36;3559092;81;32229;-88
2022/12/08 10:03:53;;;;;;;37.35;19.25;;;;;;;1.31;100.00;99738.29;3557498;81;98632;-90
2022/12/08 10:09:19;;;;;;;35.78;18.17;;;;;;;1.33;100.00;99730.64;3501012;83;31822;-88
2022/12/08 10:14:42;;;;;;;35.23;17.95;;;;;;;1.35;100.00;99731.09;3496920;82;98953;-88
2022/12/08 10:19:44;;;;;;;44.50;18.10;;;;;;;1.37;100.00;99728.05;3529575;82;30916;-90
2022/12/08 10:24:59;;;;;;;40.08;19.23;;;;;;;1.42;100.00;99722.42;3531915;82;98868;-86
2022/12/08 10:30:00;;;;;;;41.00;18.82;;;;;;;1.47;100.00;99712.15;3541708;82;32294;-91
2022/12/08 10:35:09;;;;;;;37.33;20.07;;;;;;;1.52;100.00;99717.36;3540902;82;98616;-89
2022/12/08 10:40:16;;;;;;;47.95;24.72;;;;;;;1.57;100.00;99721.22;3539680;82;30814;-89
2022/12/08 10:45:42;;;;;;;51.35;25.17;;;;;;;1.65;100.00;99720.91;3539479;82;98851;-88
2022/12/08 10:50:55;;;;;;;44.97;20.97;;;;;;;1.69;100.00;99723.19;3531530;82;26394;-90
2022/12/08 10:56:07;;;;;;;44.30;20.50;;;;;;;1.73;100.00;99720.81;3525838;82;98935;-91
2022/12/08 11:01:27;;;;;;;40.48;19.40;;;;;;;1.78;100.00;99726.58;3504863;82;31818;-91
2022/12/08 11:06:33;;;;;;;43.15;19.98;;;;;;;1.81;100.00;99725.92;3525813;82;98696;-91
2022/12/08 11:11:48;;;;;;;37.78;19.65;;;;;;;1.84;100.00;99713.83;3529354;82;26424;-91
2022/12/08 11:16:54;;;;;;;48.33;20.25;;;;;;;1.89;100.00;99716.33;3520026;82;98455;-91
2022/12/08 11:21:54;;;;;;;34.60;18.37;;;;;;;1.95;100.00;99716.89;3523216;82;31673;-91
2022/12/08 11:27:05;;;;;;;38.93;19.03;;;;;;;2.00;100.00;99708.53;3517454;82;98660;-90
2022/12/08 11:32:11;;;;;;;37.38;19.12;;;;;;;2.06;100.00;99712.61;3529796;82;29870;-89
2022/12/08 11:37:25;;;;;;;39.53;21.03;;;;;;;2.11;100.00;99707.77;3522341;82;98523;-91
2022/12/08 11:42:31;;;;;;;36.70;19.20;;;;;;;2.16;100.00;99703.47;3494454;82;31768;-90
2022/12/08 11:47:49;;;;;;;42.85;21.02;;;;;;;2.23;100.00;99700.98;3491863;82;98502;-90
2022/12/08 11:52:51;;;;;;;38.98;20.17;;;;;;;2.30;100.00;99701.78;3488362;83;32209;-89
2022/12/08 11:57:53;;;;;;;39.75;20.55;;;;;;;2.37;100.00;99678.91;3485810;83;98465;-89
2022/12/08 12:03:02;;;;;;;35.13;19.50;;;;;;;2.42;100.00;99674.61;3484701;83;31950;-91
2022/12/08 12:08:14;;;;;;;38.17;19.02;;;;;;;2.48;100.00;99678.12;3481605;83;98326;-91
2022/12/08 12:13:29;;;;;;;37.83;20.45;;;;;;;2.55;100.00;99675.62;3483432;83;98875;-90
2022/12/08 12:18:45;;;;;;;38.25;18.15;;;;;;;2.60;100.00;99672.67;3482312;83;32764;-91
2022/12/08 12:23:57;;;;;;;32.17;16.50;;;;;;;2.65;100.00;99666.20;3482771;82;98681;-92
2022/12/08 12:29:03;;;;;;;35.33;17.65;;;;;;;2.68;100.00;99651.95;3455747;83;31725;-90
2022/12/08 12:34:23;;;;;;;33.63;17.87;;;;;;;2.74;100.00;99651.92;3480875;82;98655;-90
2022/12/08 12:39:31;;;;;;;35.85;17.65;;;;;;;2.82;100.00;99650.98;3488908;82;32242;-88
2022/12/08 12:44:37;;;;;;;35.33;18.30;;;;;;;2.86;100.00;99655.41;3510655;82;98510;-89
2022/12/08 12:49:44;;;;;;;33.23;17.53;;;;;;;2.91;100.00;99652.45;3533666;82;26164;-87
2022/12/08 12:54:54;;;;;;;31.80;17.82;;;;;;;2.97;100.00;99654.34;3513485;82;98577;-87
2022/12/08 13:00:03;;;;;;;37.48;19.15;;;;;;;3.00;100.00;99646.88;3528966;82;32619;-88
2022/12/08 13:05:27;;;;;;;41.98;19.40;;;;;;;3.05;100.00;99650.11;3527123;82;98598;-90
2022/12/08 13:10:58;;;;;;;43.28;21.55;;;;;;;3.12;100.00;99653.61;3539144;82;29753;-89
2022/12/08 13:16:10;;;;;;;35.85;18.23;;;;;;;3.20;100.00;99645.86;3521006;81;98560;-92
2022/12/08 13:21:15;;;;;;;33.60;18.45;;;;;;;3.26;100.00;99648.55;3531971;82;32334;-91
2022/12/08 13:26:23;;;;;;;34.75;17.73;;;;;;;3.30;100.00;99646.72;3523888;82;98709;-92
2022/12/08 13:31:42;;;;;;;32.93;18.15;;;;;;;3.33;100.00;99650.89;3537212;82;31694;-92
2022/12/08 13:36:51;;;;;;;43.13;21.07;;;;;;;3.35;100.00;99647.83;3522803;82;98393;-90
2022/12/08 13:42:03;;;;;;;35.13;17.85;;;;;;;3.34;100.00;99642.17;3542663;82;31635;-90
2022/12/08 13:47:09;;;;;;;34.55;18.07;;;;;;;3.32;100.00;99637.08;3519593;82;98656;-89
2022/12/08 13:52:30;;;;;;;31.43;16.77;;;;;;;3.30;100.00;99637.20;3543124;82;26394;-86
2022/12/08 13:57:34;;;;;;;33.80;17.77;;;;;;;3.26;100.00;99634.39;3550592;82;98329;-91
2022/12/08 14:02:39;;;;;;;36.58;19.00;;;;;;;3.21;100.00;99636.00;3541500;82;30701;-89
2022/12/08 14:07:42;;;;;;;42.03;19.55;;;;;;;3.20;100.00;99640.42;3540431;82;98411;-88
2022/12/08 14:12:46;;;;;;;35.73;19.85;;;;;;;3.18;100.00;99635.91;3551605;82;31644;-91
2022/12/08 14:17:53;;;;;;;32.05;18.67;;;;;;;3.16;100.00;99628.68;3528286;82;98375;-91
2022/12/08 14:22:55;;;;;;;36.17;19.87;;;;;;;3.15;100.00;99628.44;3543222;80;31615;-90
2022/12/08 14:28:03;;;;;;;38.67;20.32;;;;;;;3.15;100.00;99631.16;3531166;82;98388;-89
2022/12/08 14:33:04;;;;;;;41.20;23.40;;;;;;;3.13;100.00;99625.28;3546758;82;32385;-89
2022/12/08 14:38:15;;;;;;;48.40;22.93;;;;;;;3.11;100.00;99627.56;3537852;82;99327;-90
2022/12/08 14:43:19;;;;;;;44.93;22.53;;;;;;;3.09;100.00;99618.95;3540368;82;105818;-88
2022/12/08 14:48:28;;;;;;;40.25;20.95;;;;;;;3.08;100.00;99630.97;3539555;82;32291;-88
2022/12/08 14:53:59;;;;;;;43.48;21.25;;;;;;;3.02;100.00;99627.72;3517473;82;98816;-89
2022/12/08 14:59:14;;;;;;;38.80;20.72;;;;;;;2.98;100.00;99623.30;3526219;82;31606;-90
2022/12/08 15:04:21;;;;;;;39.50;20.77;;;;;;;2.95;100.00;99626.73;3518352;82;98803;-94
2022/12/08 15:09:37;;;;;;;;;;;;;;;2.92;100.00;99632.84;3533886;82;25890;-91
2022/12/08 15:14:42;;;;;;;37.35;19.37;;;;;;;2.86;100.00;99630.15;3520211;82;84718;-92
2022/12/08 15:19:49;;;;;;;38.02;18.85;;;;;;;2.83;100.00;99641.69;3521247;82;28835;-91
2022/12/08 15:24:49;;;;;;;44.60;21.23;;;;;;;2.82;100.00;99637.40;3515343;82;98908;-93
2022/12/08 15:29:51;;;;;;;69.43;33.43;;;;;;;2.78;100.00;99625.66;3533027;82;35398;-91
2022/12/08 15:34:52;;;;;;;58.27;28.27;;;;;;;2.77;100.00;99624.86;3525395;82;98806;-94
2022/12/08 15:39:53;;;;;;;49.10;22.47;;;;;;;2.76;100.00;99618.41;3537832;82;34987;-92
2022/12/08 15:44:53;;;;;;;42.03;20.07;;;;;;;2.74;100.00;99611.95;3542957;82;98878;-89
2022/12/08 15:49:54;;;;;;;42.97;20.73;;;;;;;2.70;100.00;99608.36;3542842;82;34883;-91
2022/12/08 15:54:55;;;;;;;40.77;20.50;;;;;;;2.68;100.00;99616.62;3533966;82;98436;-92
2022/12/08 15:59:56;;;;;;;37.37;21.33;;;;;;;2.66;100.00;99616.97;3546342;82;35384;-92
2022/12/08 16:04:56;;;;;;;39.73;19.30;;;;;;;2.66;100.00;99622.95;3550796;82;98710;-90
2022/12/08 16:09:57;;;;;;;36.63;21.20;;;;;;;2.64;100.00;99613.02;3546237;82;25837;-89
2022/12/08 16:14:58;;;;;;;44.53;23.27;;;;;;;2.68;100.00;99604.41;3541158;82;98655;-89
2022/12/08 16:20:00;;;;;;;43.40;23.27;;;;;;;2.68;100.00;99604.41;3545383;82;32424;-90
2022/12/08 16:25:00;;;;;;;43.13;21.90;;;;;;;2.70;100.00;99607.00;3538335;82;98543;-88
2022/12/08 16:30:01;;;;;;;50.33;23.07;;;;;;;2.71;100.00;99608.58;3540384;82;33047;-91
2022/12/08 16:35:03;;;;;;;37.63;19.70;;;;;;;2.75;100.00;99616.83;3542960;82;98724;-87
2022/12/08 16:40:06;;;;;;;33.13;18.27;;;;;;;2.77;100.00;99616.70;3551635;82;32480;-88
2022/12/08 16:45:18;;;;;;;37.17;19.75;;;;;;;2.79;100.00;99610.34;3435260;84;98556;-92
2022/12/08 16:50:22;;;;;;;40.00;19.60;;;;;;;2.82;100.00;99619.19;3461448;84;34768;-93
2022/12/08 16:55:23;;;;;;;44.80;21.82;;;;;;;2.83;100.00;99619.40;3455956;84;98812;-89
2022/12/08 17:00:27;;;;;;;37.07;19.03;;;;;;;2.86;100.00;99616.56;3464247;84;30729;-92
2022/12/08 17:05:28;;;;;;;39.80;19.12;;;;;;;2.87;100.00;99609.43;3408374;84;98720;-90
2022/12/08 17:10:34;;;;;;;33.93;17.90;;;;;;;2.88;100.00;99597.98;3372408;86;26490;-88
2022/12/08 17:15:35;;;;;;;31.62;16.20;;;;;;;2.89;100.00;99610.45;3397292;84;98574;-88
2022/12/08 17:20:39;;;;;;;31.60;15.83;;;;;;;2.91;100.00;99612.24;3436993;85;26290;-88
2022/12/08 17:25:40;;;;;;;31.17;16.15;;;;;;;2.92;100.00;99619.25;3425947;84;98496;-92
2022/12/08 17:30:40;;;;;;;34.23;17.10;;;;;;;2.93;100.00;99607.24;3436479;85;26342;-87
2022/12/08 17:35:48;;;;;;;30.47;17.33;;;;;;;2.94;100.00;99604.19;3437905;85;98811;-87
2022/12/08 17:40:49;;;;;;;34.23;18.23;;;;;;;2.93;100.00;99598.53;3437995;82;34925;-88
2022/12/08 17:45:49;;;;;;;31.17;17.03;;;;;;;2.93;100.00;99606.69;3512852;82;98957;-89
2022/12/08 17:50:51;;;;;;;31.93;17.90;;;;;;;2.94;100.00;99612.34;3521937;82;32506;-91
2022/12/08 17:55:55;;;;;;;38.97;18.57;;;;;;;2.93;100.00;99608.05;3526718;82;98571;-89
2022/12/08 18:00:56;;;;;;;33.90;19.02;;;;;;;2.93;100.00;99618.91;3519719;82;35346;-93
2022/12/08 18:06:07;;;;;;;40.33;19.87;;;;;;;2.94;100.00;99616.97;3513839;82;98562;-91
2022/12/08 18:11:18;;;;;;;39.73;20.45;;;;;;;2.92;100.00;99622.77;3522861;82;34790;-92
2022/12/08 18:16:22;;;;;;;37.80;19.75;;;;;;;2.91;100.00;99625.83;3499000;82;98521;-90
2022/12/08 18:21:22;;;;;;;39.48;20.32;;;;;;;2.90;100.00;99625.03;3519717;82;33962;-89
2022/12/08 18:26:23;;;;;;;41.43;23.07;;;;;;;2.88;100.00;99629.22;3422680;84;98903;-92
2022/12/08 18:31:24;;;;;;;39.20;19.63;;;;;;;2.87;100.00;99629.01;3427391;85;32449;-93
2022/12/08 18:36:26;;;;;;;41.53;22.13;;;;;;;2.84;100.00;99632.43;3415666;85;98693;-92
2022/12/08 18:41:27;;;;;;;42.10;20.80;;;;;;;2.84;100.00;99641.94;3422671;84;33496;-92
2022/12/08 18:46:27;;;;;;;40.13;20.30;;;;;;;2.83;100.00;99646.57;3428893;84;98777;-91
2022/12/08 18:51:28;;;;;;;46.47;22.30;;;;;;;2.82;100.00;99650.43;3433442;84;33719;-90
2022/12/08 18:56:34;;;;;;;45.23;23.53;;;;;;;2.82;100.00;99652.34;3434880;84;99178;-90
2022/12/08 19:01:37;;;;;;;54.33;24.87;;;;;;;2.82;100.00;99655.06;3421779;85;26265;-93
2022/12/08 19:06:39;;;;;;;50.57;23.73;;;;;;;2.82;100.00;99647.71;3370997;85;98773;-92
2022/12/08 19:11:41;;;;;;;43.20;22.32;;;;;;;2.83;100.00;99656.63;3354870;86;33026;-90
2022/12/08 19:16:42;;;;;;;52.00;23.95;;;;;;;2.83;100.00;99657.44;3371948;85;98814;-94
2022/12/08 19:21:42;;;;;;;48.17;23.60;;;;;;;2.86;100.00;99660.03;3376627;86;33788;-92
2022/12/08 19:26:44;;;;;;;50.53;25.03;;;;;;;2.83;100.00;99647.93;3379196;85;98341;-91
2022/12/08 19:31:45;;;;;;;52.33;24.90;;;;;;;2.83;100.00;99652.00;3382798;86;33189;-91
2022/12/08 19:36:46;;;;;;;53.47;25.97;;;;;;;2.86;100.00;99657.32;3376242;85;98537;-90
2022/12/08 19:47:06;;;;;;;58.83;29.50;;;;;;;2.88;100.00;99649.05;3373889;85;98477;-92
2022/12/08 19:52:07;;;;;;;54.47;30.17;;;;;;;2.91;100.00;99663.88;3384677;86;26241;-92
2022/12/08 19:57:09;;;;;;;58.87;27.73;;;;;;;2.88;100.00;99661.28;3382562;85;98460;-92
2022/12/08 20:02:11;;;;;;;34.33;18.17;;;;;;;2.87;100.00;99671.93;3393320;86;32634;-94
2022/12/08 20:07:12;;;;;;;23.97;13.03;;;;;;;2.85;100.00;99667.97;3376576;85;98706;-92
2022/12/08 20:12:13;;;;;;;17.20;9.87;;;;;;;2.85;100.00;99670.10;3379717;85;26216;-91
2022/12/08 20:17:14;;;;;;;16.67;8.80;;;;;;;2.84;100.00;99675.32;3377222;85;98394;-92
2022/12/08 20:22:15;;;;;;;18.67;8.67;;;;;;;2.79;100.00;99682.34;3383104;86;33714;-92
2022/12/08 20:27:16;;;;;;;15.95;7.40;;;;;;;2.74;100.00;99681.23;3376252;85;98370;-96
2022/12/08 20:32:17;;;;;;;15.73;7.83;;;;;;;2.65;100.00;99686.57;3373601;86;33051;-94
2022/12/08 20:37:18;;;;;;;16.50;8.33;;;;;;;2.53;100.00;99686.05;3366473;86;98461;-93
2022/12/08 20:42:19;;;;;;;16.13;8.03;;;;;;;2.47;100.00;99688.73;3380211;86;32458;-94
2022/12/08 20:47:20;;;;;;;15.53;7.63;;;;;;;2.43;100.00;99689.77;3382615;84;98216;-91
2022/12/08 20:52:21;;;;;;;15.10;7.37;;;;;;;2.36;100.00;99693.05;3379390;86;32468;-93
2022/12/08 20:57:21;;;;;;;18.05;8.25;;;;;;;2.30;100.00;99698.48;3379818;84;98614;-92
2022/12/08 21:02:22;;;;;;;16.40;8.03;;;;;;;2.26;100.00;99702.22;3380997;85;27431;-95
2022/12/08 21:07:23;;;;;;;47.70;18.27;;;;;;;2.22;100.00;99706.19;3375368;85;98343;-93
2022/12/08 21:12:25;;;;;;;59.83;25.17;;;;;;;2.19;100.00;99708.79;3379474;86;26336;-91
2022/12/08 21:17:26;;;;;;;54.03;22.80;;;;;;;2.14;100.00;99722.58;3395433;85;98660;-90
2022/12/08 21:22:27;;;;;;;27.20;14.07;;;;;;;2.07;100.00;99717.70;3400272;85;26306;-92
2022/12/08 21:27:27;;;;;;;29.17;12.33;;;;;;;2.02;100.00;99712.49;3385979;85;98734;-91
2022/12/08 21:32:28;;;;;;;31.07;16.17;;;;;;;1.98;100.00;99712.94;3380177;85;25940;-91
2022/12/08 21:37:29;;;;;;;19.57;10.83;;;;;;;1.92;100.00;99715.64;3420756;85;98604;-89
2022/12/08 21:42:42;;;;;;;19.20;10.60;;;;;;;1.91;100.00;99716.00;3445168;85;26240;-89
2022/12/08 21:47:45;;;;;;;15.97;8.97;;;;;;;1.88;100.00;99713.95;3402427;84;98380;-90
2022/12/08 21:52:48;;;;;;;18.87;10.10;;;;;;;1.85;100.00;99714.05;3414716;85;27451;-91
2022/12/08 21:57:48;;;;;;;20.52;11.73;;;;;;;1.83;100.00;99726.37;3432005;85;98731;-91
2022/12/08 22:02:49;;;;;;;17.00;9.07;;;;;;;1.79;100.00;99730.88;3438577;85;25873;-89
2022/12/08 22:07:50;;;;;;;18.33;9.80;;;;;;;1.72;100.00;99724.66;3421577;85;98640;-89
2022/12/08 22:12:51;;;;;;;33.53;14.20;;;;;;;1.67;100.00;99724.06;3433131;85;26218;-89
2022/12/08 22:17:51;;;;;;;77.47;30.60;;;;;;;1.64;100.00;99720.11;3431256;85;98526;-89
2022/12/08 22:22:52;;;;;;;69.13;28.43;;;;;;;1.61;100.00;99714.56;3436892;85;26530;-89
2022/12/08 22:27:53;;;;;;;25.67;11.43;;;;;;;1.60;100.00;99718.41;3428385;85;98605;-90
2022/12/08 22:32:54;;;;;;;19.90;10.13;;;;;;;1.62;100.00;99723.73;3428334;85;32905;-90
2022/12/08 22:37:54;;;;;;;20.73;10.53;;;;;;;1.61;100.00;99711.84;3429668;85;98390;-90
2022/12/08 22:42:56;;;;;;;26.60;12.67;;;;;;;1.63;100.00;99717.17;3435355;84;33179;-90
2022/12/08 22:47:56;;;;;;;23.77;12.20;;;;;;;1.63;100.00;99729.38;3454936;84;98879;-90
2022/12/08 22:52:58;;;;;;;26.63;13.43;;;;;;;1.61;100.00;99738.97;3467054;84;32987;-90
2022/12/08 22:57:59;;;;;;;24.00;13.07;;;;;;;1.58;100.00;99745.08;3460756;84;98739;-91
2022/12/08 23:02:59;;;;;;;22.03;11.27;;;;;;;1.57;100.00;99740.75;3446782;84;33082;-90
2022/12/08 23:08:02;;;;;;;23.23;12.17;;;;;;;1.59;100.00;99742.59;3453221;83;98280;-89
2022/12/08 23:13:02;;;;;;;23.90;11.37;;;;;;;1.60;100.00;99742.23;3464568;84;32987;-90
2022/12/08 23:24:19;;;;;;;26.60;12.93;;;;;;;1.63;100.00;99746.20;3460236;83;98711;-90
2022/12/08 23:29:20;;;;;;;28.57;13.03;;;;;;;1.63;100.00;99744.84;3470602;84;32900;-89
2022/12/08 23:34:21;;;;;;;24.73;12.80;;;;;;;1.62;100.00;99741.35;3447112;84;98772;-89
2022/12/08 23:39:23;;;;;;;22.60;11.77;;;;;;;1.63;100.00;99743.48;3459527;84;32922;-89